createdAt,value
2018-02-19T00:02:14.606Z,3.06
2018-02-19T00:04:40.579Z,3.22
2018-02-19T00:07:06.534Z,3.59
2018-02-19T00:09:32.474Z,3.85
2018-02-19T00:11:58.404Z,3.30
2018-02-19T00:14:24.338Z,3.44
2018-02-19T00:16:50.262Z,3.46
2018-02-19T00:19:16.208Z,3.56
2018-02-19T00:21:42.137Z,3.47
2018-02-19T00:24:08.090Z,3.52
2018-02-19T00:26:34.017Z,3.44
2018-02-19T00:31:32.343Z,3.27
2018-02-19T00:33:58.285Z,3.29
2018-02-19T00:36:24.222Z,3.49
2018-02-19T00:38:50.159Z,3.74
2018-02-19T00:41:16.097Z,3.80
2018-02-19T00:43:42.033Z,3.95
2018-02-19T00:46:07.974Z,3.33
2018-02-19T00:48:33.924Z,3.40
2018-02-19T00:50:59.850Z,3.27
2018-02-19T00:53:25.788Z,3.28
2018-02-19T00:55:52.065Z,3.17
2018-02-19T00:58:18.006Z,3.86
2018-02-19T01:00:43.935Z,3.37
2018-02-19T01:03:09.867Z,3.15
2018-02-19T01:05:35.806Z,2.92
2018-02-19T01:08:01.733Z,2.92
2018-02-19T01:10:27.664Z,3.06
2018-02-19T01:12:53.596Z,2.97
2018-02-19T01:15:19.513Z,2.78
2018-02-19T01:20:16.945Z,2.66
2018-02-19T01:22:42.868Z,2.86
2018-02-19T01:25:08.790Z,3.78
2018-02-19T01:27:34.713Z,3.07
2018-02-19T01:30:00.644Z,3.51
2018-02-19T01:32:26.575Z,3.40
2018-02-19T01:34:52.496Z,3.97
2018-02-19T01:37:18.522Z,4.06
2018-02-19T01:39:44.457Z,3.11
2018-02-19T01:42:10.391Z,2.72
2018-02-19T01:44:36.334Z,2.57
2018-02-19T01:47:02.262Z,2.72
2018-02-19T01:49:28.194Z,2.79
2018-02-19T01:51:54.167Z,2.56
2018-02-19T01:54:20.110Z,2.59
2018-02-19T01:56:46.044Z,2.57
2018-02-19T01:59:11.983Z,2.45
2018-02-19T02:01:37.908Z,2.33
2018-02-19T02:04:03.862Z,2.24
2018-02-19T02:06:29.790Z,2.09
2018-02-19T02:08:55.727Z,2.51
2018-02-19T02:11:21.643Z,2.21
2018-02-19T02:13:47.598Z,2.25
2018-02-19T02:16:13.575Z,2.49
2018-02-19T02:18:39.495Z,2.42
2018-02-19T02:21:05.414Z,2.64
2018-02-19T02:23:31.354Z,2.64
2018-02-19T02:25:57.303Z,2.45
2018-02-19T02:28:23.259Z,2.01
2018-02-19T02:30:49.214Z,2.37
2018-02-19T02:33:15.143Z,2.26
2018-02-19T02:35:41.081Z,2.39
2018-02-19T02:38:07.008Z,2.13
2018-02-19T02:40:32.939Z,2.19
2018-02-19T02:42:58.910Z,2.05
2018-02-19T02:45:24.841Z,1.97
2018-02-19T02:47:50.771Z,2.16
2018-02-19T02:50:16.714Z,2.20
2018-02-19T02:52:42.646Z,1.93
2018-02-19T02:55:08.590Z,1.84
2018-02-19T02:57:34.545Z,1.94
2018-02-19T03:00:00.506Z,2.17
2018-02-19T03:02:26.435Z,2.41
2018-02-19T03:04:52.436Z,2.12
2018-02-19T03:07:18.400Z,1.67
2018-02-19T03:09:44.361Z,1.70
2018-02-19T03:12:10.286Z,1.82
2018-02-19T03:14:36.210Z,1.62
2018-02-19T03:17:02.130Z,1.53
2018-02-19T03:19:28.101Z,1.70
2018-02-19T03:21:54.030Z,1.84
2018-02-19T03:24:19.984Z,1.64
2018-02-19T03:26:45.915Z,1.72
2018-02-19T03:29:11.855Z,2.13
2018-02-19T03:31:37.771Z,1.90
2018-02-19T03:34:03.714Z,1.80
2018-02-19T03:36:29.634Z,1.68
2018-02-19T03:38:55.611Z,2.06
2018-02-19T03:41:21.593Z,1.72
2018-02-19T03:43:47.534Z,1.89
2018-02-19T03:46:13.476Z,1.90
2018-02-19T03:48:39.446Z,1.70
2018-02-19T03:51:05.384Z,1.54
2018-02-19T03:53:31.306Z,1.88
2018-02-19T03:55:57.245Z,1.75
2018-02-19T03:58:23.180Z,1.80
2018-02-19T04:00:49.111Z,1.54
2018-02-19T04:03:15.031Z,1.58
2018-02-19T04:05:40.981Z,1.73
2018-02-19T04:08:06.948Z,1.55
2018-02-19T04:10:32.887Z,1.77
2018-02-19T04:12:58.815Z,1.64
2018-02-19T04:15:24.865Z,1.84
2018-02-19T04:17:50.801Z,2.05
2018-02-19T04:20:16.770Z,1.60
2018-02-19T04:22:42.693Z,1.54
2018-02-19T04:25:08.698Z,1.69
2018-02-19T04:27:34.630Z,1.51
2018-02-19T04:30:00.562Z,1.48
2018-02-19T04:32:26.518Z,1.44
2018-02-19T04:34:52.458Z,1.49
2018-02-19T04:37:18.387Z,1.50
2018-02-19T04:39:44.322Z,1.51
2018-02-19T04:42:10.267Z,1.93
2018-02-19T04:44:36.224Z,1.84
2018-02-19T04:47:02.183Z,2.07
2018-02-19T04:49:28.115Z,1.67
2018-02-19T04:51:54.039Z,1.61
2018-02-19T04:54:19.975Z,1.27
2018-02-19T04:56:45.908Z,1.07
2018-02-19T04:59:11.831Z,0.87
2018-02-19T05:01:37.763Z,0.84
2018-02-19T05:04:03.699Z,0.86
2018-02-19T05:06:29.633Z,0.98
2018-02-19T05:08:55.563Z,1.11
2018-02-19T05:11:21.495Z,1.35
2018-02-19T05:13:47.439Z,0.91
2018-02-19T05:16:13.379Z,0.83
2018-02-19T05:18:39.323Z,0.99
2018-02-19T05:21:05.273Z,0.99
2018-02-19T05:23:31.214Z,1.30
2018-02-19T05:25:57.189Z,1.08
2018-02-19T05:28:23.127Z,1.16
2018-02-19T05:30:49.091Z,1.38
2018-02-19T05:33:15.028Z,1.04
2018-02-19T05:35:40.960Z,0.65
2018-02-19T05:38:06.882Z,0.97
2018-02-19T05:40:32.800Z,1.22
2018-02-19T05:42:58.727Z,0.97
2018-02-19T05:45:24.652Z,0.79
2018-02-19T05:47:50.575Z,0.70
2018-02-19T05:50:16.519Z,0.70
2018-02-19T05:52:42.457Z,0.69
2018-02-19T05:55:08.391Z,0.49
2018-02-19T05:57:34.334Z,0.93
2018-02-19T06:00:00.308Z,1.11
2018-02-19T06:02:26.342Z,0.90
2018-02-19T06:04:52.275Z,1.22
2018-02-19T06:07:18.237Z,1.09
2018-02-19T06:09:44.181Z,0.98
2018-02-19T06:12:10.106Z,0.84
2018-02-19T06:14:36.047Z,0.77
2018-02-19T06:17:01.968Z,0.90
2018-02-19T06:19:27.903Z,1.00
2018-02-19T06:21:53.834Z,1.06
2018-02-19T06:24:19.775Z,1.12
2018-02-19T06:26:45.713Z,1.08
2018-02-19T06:29:11.651Z,0.96
2018-02-19T06:31:37.569Z,0.89
2018-02-19T06:34:03.523Z,1.06
2018-02-19T06:36:30.618Z,1.21
2018-02-19T06:38:56.550Z,1.30
2018-02-19T06:41:22.476Z,1.26
2018-02-19T06:43:48.419Z,1.53
2018-02-19T06:46:14.348Z,1.54
2018-02-19T06:48:40.292Z,1.29
2018-02-19T06:51:06.237Z,1.10
2018-02-19T06:53:32.186Z,1.22
2018-02-19T06:55:58.141Z,1.30
2018-02-19T06:58:24.098Z,2.32
2018-02-19T07:00:50.043Z,1.74
2018-02-19T07:03:15.995Z,1.80
2018-02-19T07:05:41.921Z,2.32
2018-02-19T07:08:07.853Z,1.98
2018-02-19T07:10:33.770Z,3.03
2018-02-19T07:12:59.723Z,2.47
2018-02-19T07:15:25.666Z,2.86
2018-02-19T07:17:51.608Z,2.57
2018-02-19T07:20:17.570Z,2.50
2018-02-19T07:22:43.523Z,2.93
2018-02-19T07:25:09.469Z,2.80
2018-02-19T07:27:35.410Z,3.20
2018-02-19T07:30:01.350Z,2.98
2018-02-19T07:32:27.973Z,3.35
2018-02-19T07:34:53.903Z,3.55
2018-02-19T07:37:19.829Z,3.34
2018-02-19T07:39:45.804Z,3.06
2018-02-19T07:44:49.397Z,3.31
2018-02-19T07:47:22.102Z,3.62
2018-02-19T07:49:48.499Z,3.55
2018-02-19T07:52:14.438Z,3.53
2018-02-19T07:54:40.358Z,3.88
2018-02-19T07:57:06.288Z,3.76
2018-02-19T07:59:32.215Z,3.41
2018-02-19T08:01:58.146Z,3.36
2018-02-19T08:04:24.076Z,3.71
2018-02-19T08:06:50.029Z,3.96
2018-02-19T08:09:15.982Z,3.97
2018-02-19T08:11:41.935Z,3.92
2018-02-19T08:14:07.896Z,4.36
2018-02-19T08:16:33.975Z,4.90
2018-02-19T08:18:59.923Z,5.01
2018-02-19T08:21:25.957Z,4.93
2018-02-19T08:23:51.923Z,5.18
2018-02-19T08:26:17.859Z,5.56
2018-02-19T08:28:43.795Z,4.37
2018-02-19T08:31:09.740Z,4.83
2018-02-19T08:33:35.673Z,4.99
2018-02-19T08:36:01.608Z,5.44
2018-02-19T08:38:27.549Z,4.81
2018-02-19T08:40:53.596Z,5.13
2018-02-19T08:43:19.548Z,5.56
2018-02-19T08:45:45.475Z,5.40
2018-02-19T08:48:11.431Z,5.57
2018-02-19T08:50:37.378Z,5.60
2018-02-19T08:53:03.335Z,5.66
2018-02-19T08:55:29.267Z,5.16
2018-02-19T08:57:55.224Z,5.13
2018-02-19T09:00:21.182Z,4.92
2018-02-19T09:02:47.136Z,5.20
2018-02-19T09:05:13.067Z,5.00
2018-02-19T09:07:39.041Z,5.44
2018-02-19T09:10:04.987Z,5.58
2018-02-19T09:12:30.967Z,6.08
2018-02-19T09:14:56.910Z,6.47
2018-02-19T09:17:22.869Z,6.68
2018-02-19T09:19:48.815Z,6.42
2018-02-19T09:22:14.763Z,5.67
2018-02-19T09:24:40.779Z,5.59
2018-02-19T09:27:06.719Z,5.71
2018-02-19T09:29:32.673Z,5.82
2018-02-19T09:31:58.613Z,5.67
2018-02-19T09:34:24.611Z,5.64
2018-02-19T09:36:50.569Z,6.03
2018-02-19T09:39:16.516Z,6.10
2018-02-19T09:41:42.507Z,6.61
2018-02-19T09:44:08.407Z,6.32
2018-02-19T09:46:34.361Z,5.60
2018-02-19T09:49:00.343Z,5.83
2018-02-19T09:51:26.300Z,5.74
2018-02-19T09:53:52.239Z,6.36
2018-02-19T09:56:18.167Z,6.80
2018-02-19T09:58:44.116Z,6.54
2018-02-19T10:01:10.055Z,6.65
2018-02-19T10:03:35.984Z,6.62
2018-02-19T10:06:01.928Z,6.22
2018-02-19T10:08:27.879Z,6.72
2018-02-19T10:10:53.816Z,6.42
2018-02-19T10:13:19.773Z,6.61
2018-02-19T10:15:45.736Z,6.43
2018-02-19T10:18:11.679Z,6.76
2018-02-19T10:20:37.623Z,6.66
2018-02-19T10:23:03.560Z,6.60
2018-02-19T10:25:29.503Z,6.82
2018-02-19T10:27:55.446Z,6.44
2018-02-19T10:30:21.394Z,6.67
2018-02-19T10:32:47.339Z,6.55
2018-02-19T10:35:13.267Z,6.35
2018-02-19T10:37:39.205Z,6.68
2018-02-19T10:40:05.166Z,6.76
2018-02-19T10:42:31.093Z,6.65
2018-02-19T10:44:57.049Z,6.71
2018-02-19T10:47:22.987Z,6.67
2018-02-19T10:49:48.928Z,6.81
2018-02-19T10:52:14.868Z,6.63
2018-02-19T10:54:40.800Z,7.05
2018-02-19T10:57:06.717Z,6.82
2018-02-19T10:59:32.697Z,6.58
2018-02-19T11:01:58.633Z,6.69
2018-02-19T11:04:24.581Z,7.22
2018-02-19T11:06:50.525Z,6.56
2018-02-19T11:09:16.488Z,6.54
2018-02-19T11:11:42.437Z,6.86
2018-02-19T11:14:08.375Z,6.71
2018-02-19T11:16:34.312Z,6.88
2018-02-19T11:19:00.253Z,6.69
2018-02-19T11:21:26.195Z,7.01
2018-02-19T11:23:52.127Z,6.85
2018-02-19T11:26:18.053Z,6.92
2018-02-19T11:28:45.238Z,6.79
2018-02-19T11:31:11.249Z,6.91
2018-02-19T11:33:37.182Z,6.90
2018-02-19T11:36:03.102Z,6.62
2018-02-19T11:38:29.036Z,6.64
2018-02-19T11:40:54.975Z,6.54
2018-02-19T11:43:20.906Z,6.68
2018-02-19T11:45:47.083Z,6.90
2018-02-19T11:48:13.000Z,6.83
2018-02-19T11:50:38.964Z,6.95
2018-02-19T11:53:04.911Z,7.01
2018-02-19T11:55:30.848Z,7.08
2018-02-19T11:57:56.780Z,7.17
2018-02-19T12:00:22.706Z,7.09
2018-02-19T12:02:48.637Z,6.99
2018-02-19T12:05:14.566Z,6.87
2018-02-19T12:07:40.506Z,6.90
2018-02-19T12:10:06.435Z,7.15
2018-02-19T12:12:32.365Z,7.13
2018-02-19T12:14:58.305Z,7.08
2018-02-19T12:17:24.236Z,6.87
2018-02-19T12:19:50.158Z,6.99
2018-02-19T12:22:16.098Z,6.82
2018-02-19T12:24:42.032Z,6.93
2018-02-19T12:27:07.978Z,7.34
2018-02-19T12:29:33.902Z,7.04
2018-02-19T12:31:59.840Z,6.90
2018-02-19T12:34:25.797Z,6.97
2018-02-19T12:36:51.698Z,7.12
2018-02-19T12:39:17.644Z,7.23
2018-02-19T12:41:43.578Z,7.13
2018-02-19T12:44:09.502Z,7.15
2018-02-19T12:46:35.430Z,7.10
2018-02-19T12:49:01.402Z,7.17
2018-02-19T12:51:27.332Z,7.23
2018-02-19T12:53:53.296Z,7.19
2018-02-19T12:56:19.230Z,7.25
2018-02-19T12:58:45.176Z,7.34
2018-02-19T13:01:11.120Z,6.78
2018-02-19T13:03:37.074Z,7.14
2018-02-19T13:06:03.020Z,7.28
2018-02-19T13:08:29.036Z,7.03
2018-02-19T13:10:54.959Z,7.05
2018-02-19T13:13:20.948Z,6.99
2018-02-19T13:15:46.878Z,7.05
2018-02-19T13:18:12.814Z,7.13
2018-02-19T13:20:38.754Z,6.86
2018-02-19T13:23:04.696Z,6.85
2018-02-19T13:25:30.656Z,6.78
2018-02-19T13:27:56.584Z,6.78
2018-02-19T13:30:22.530Z,6.70
2018-02-19T13:32:48.466Z,6.91
2018-02-19T13:35:14.391Z,6.88
2018-02-19T13:37:40.328Z,6.81
2018-02-19T13:40:06.268Z,6.73
2018-02-19T13:42:32.203Z,6.39
2018-02-19T13:44:58.164Z,6.68
2018-02-19T13:47:24.131Z,6.73
2018-02-19T13:49:50.070Z,6.41
2018-02-19T13:52:16.010Z,6.50
2018-02-19T13:54:41.952Z,6.63
2018-02-19T13:57:07.887Z,6.41
2018-02-19T13:59:33.814Z,6.32
2018-02-19T14:01:59.753Z,6.42
2018-02-19T14:04:25.694Z,6.54
2018-02-19T14:06:51.667Z,6.40
2018-02-19T14:09:17.614Z,6.29
2018-02-19T14:11:43.551Z,6.41
2018-02-19T14:14:09.500Z,6.26
2018-02-19T14:16:35.445Z,6.23
2018-02-19T14:19:01.391Z,6.21
2018-02-19T14:21:27.331Z,6.40
2018-02-19T14:23:53.323Z,6.59
2018-02-19T14:26:19.262Z,6.48
2018-02-19T14:28:45.212Z,6.21
2018-02-19T14:31:11.135Z,6.26
2018-02-19T14:33:37.101Z,6.35
2018-02-19T14:36:03.007Z,6.48
2018-02-19T14:38:28.959Z,6.23
2018-02-19T14:40:54.896Z,6.26
2018-02-19T14:43:20.835Z,6.17
2018-02-19T14:45:46.782Z,5.99
2018-02-19T14:48:12.747Z,6.15
2018-02-19T14:50:38.723Z,6.17
2018-02-19T14:53:04.695Z,6.04
2018-02-19T14:55:30.650Z,6.17
2018-02-19T14:57:56.638Z,6.31
2018-02-19T15:00:22.573Z,6.20
2018-02-19T15:02:48.521Z,6.30
2018-02-19T15:05:14.464Z,6.28
2018-02-19T15:07:40.406Z,5.82
2018-02-19T15:10:06.346Z,5.73
2018-02-19T15:12:32.269Z,5.91
2018-02-19T15:14:58.202Z,6.05
2018-02-19T15:17:24.128Z,6.12
2018-02-19T15:19:50.055Z,5.81
2018-02-19T15:22:16.079Z,5.75
2018-02-19T15:24:42.007Z,5.72
2018-02-19T15:27:07.943Z,5.57
2018-02-19T15:29:33.875Z,5.63
2018-02-19T15:31:59.807Z,6.07
2018-02-19T15:34:25.749Z,6.00
2018-02-19T15:36:51.679Z,5.91
2018-02-19T15:39:17.611Z,5.83
2018-02-19T15:41:43.556Z,5.73
2018-02-19T15:44:09.495Z,5.87
2018-02-19T15:46:35.422Z,5.63
2018-02-19T15:49:01.378Z,5.72
2018-02-19T15:51:27.306Z,5.56
2018-02-19T15:53:53.278Z,5.78
2018-02-19T15:56:19.194Z,5.84
2018-02-19T15:58:45.132Z,5.86
2018-02-19T16:01:11.072Z,6.02
2018-02-19T16:03:36.994Z,5.85
2018-02-19T16:06:02.918Z,5.83
2018-02-19T16:08:28.842Z,5.92
2018-02-19T16:10:54.790Z,5.77
2018-02-19T16:13:20.721Z,5.96
2018-02-19T16:15:46.658Z,5.93
2018-02-19T16:18:12.608Z,5.94
2018-02-19T16:20:38.554Z,5.71
2018-02-19T16:23:04.491Z,5.75
2018-02-19T16:25:30.424Z,5.80
2018-02-19T16:27:56.406Z,5.73
2018-02-19T16:30:22.350Z,5.65
2018-02-19T16:32:48.268Z,5.83
2018-02-19T16:35:14.218Z,5.72
2018-02-19T16:37:40.154Z,5.59
2018-02-19T16:40:06.112Z,5.78
2018-02-19T16:42:32.056Z,5.84
2018-02-19T16:44:58.026Z,5.39
2018-02-19T16:47:25.776Z,5.60
2018-02-19T16:49:51.810Z,5.66
2018-02-19T16:52:17.754Z,5.55
2018-02-19T16:54:43.736Z,5.27
2018-02-19T16:57:09.676Z,5.64
2018-02-19T16:59:35.622Z,5.84
2018-02-19T17:02:01.582Z,5.85
2018-02-19T17:04:27.522Z,5.84
2018-02-19T17:06:53.457Z,5.91
2018-02-19T17:09:19.425Z,5.62
2018-02-19T17:11:45.362Z,5.42
2018-02-19T17:14:11.308Z,5.30
2018-02-19T17:16:37.264Z,5.08
2018-02-19T17:19:03.203Z,5.60
2018-02-19T17:21:29.135Z,5.70
2018-02-19T17:23:55.098Z,5.68
2018-02-19T17:26:21.035Z,5.76
2018-02-19T17:28:46.960Z,5.65
2018-02-19T17:31:12.894Z,5.41
2018-02-19T17:33:38.837Z,5.10
2018-02-19T17:36:04.778Z,4.86
2018-02-19T17:38:30.725Z,4.95
2018-02-19T17:40:56.771Z,5.18
2018-02-19T17:43:23.825Z,5.49
2018-02-19T17:45:49.804Z,5.21
2018-02-19T17:48:15.731Z,5.57
2018-02-19T17:50:41.668Z,5.27
2018-02-19T17:53:07.661Z,5.08
2018-02-19T17:55:33.615Z,4.81
2018-02-19T17:57:59.549Z,4.82
2018-02-19T18:00:25.495Z,4.40
2018-02-19T18:02:51.414Z,4.48
2018-02-19T18:05:17.373Z,4.74
2018-02-19T18:07:43.338Z,4.56
2018-02-19T18:10:09.283Z,4.71
2018-02-19T18:12:35.228Z,4.66
2018-02-19T18:15:01.167Z,4.49
2018-02-19T18:17:27.119Z,4.50
2018-02-19T18:19:53.083Z,4.37
2018-02-19T18:22:19.007Z,4.46
2018-02-19T18:24:44.996Z,4.54
2018-02-19T18:27:11.016Z,5.04
2018-02-19T18:29:36.947Z,5.04
2018-02-19T18:32:02.884Z,4.40
2018-02-19T18:34:28.825Z,4.10
2018-02-19T18:36:54.816Z,4.07
2018-02-19T18:39:20.775Z,4.01
2018-02-19T18:41:46.713Z,4.05
2018-02-19T18:44:12.675Z,4.18
2018-02-19T18:46:38.716Z,4.03
2018-02-19T18:49:04.652Z,3.86
2018-02-19T18:51:30.612Z,3.85
2018-02-19T18:53:56.540Z,4.35
2018-02-19T18:56:22.476Z,3.94
2018-02-19T18:58:48.441Z,4.10
2018-02-19T19:01:14.457Z,3.95
2018-02-19T19:03:40.400Z,3.90
2018-02-19T19:06:06.353Z,3.92
2018-02-19T19:08:32.304Z,3.97
2018-02-19T19:10:58.273Z,3.77
2018-02-19T19:13:24.211Z,3.87
2018-02-19T19:15:50.183Z,4.00
2018-02-19T19:18:16.166Z,4.22
2018-02-19T19:20:42.080Z,4.11
2018-02-19T19:23:08.032Z,4.57
2018-02-19T19:25:33.996Z,4.63
2018-02-19T19:27:59.932Z,4.70
2018-02-19T19:30:25.875Z,4.75
2018-02-19T19:32:51.802Z,4.87
2018-02-19T19:35:17.781Z,5.15
2018-02-19T19:37:43.788Z,4.72
2018-02-19T19:40:09.742Z,4.74
2018-02-19T19:42:35.734Z,4.14
2018-02-19T19:45:01.683Z,3.95
2018-02-19T19:47:27.634Z,3.93
2018-02-19T19:49:53.888Z,3.61
2018-02-19T19:52:19.826Z,3.42
2018-02-19T19:54:45.795Z,3.62
2018-02-19T19:57:11.759Z,3.78
2018-02-19T19:59:37.694Z,4.54
2018-02-19T20:02:03.634Z,4.43
2018-02-19T20:04:29.604Z,4.84
2018-02-19T20:06:55.582Z,4.86
2018-02-19T20:09:21.576Z,4.92
2018-02-19T20:11:47.532Z,4.58
2018-02-19T20:14:13.468Z,3.91
2018-02-19T20:16:39.444Z,3.68
2018-02-19T20:19:05.372Z,3.44
2018-02-19T20:21:31.360Z,3.51
2018-02-19T20:23:57.312Z,3.33
2018-02-19T20:26:23.236Z,3.45
2018-02-19T20:28:49.176Z,3.53
2018-02-19T20:31:15.118Z,3.92
2018-02-19T20:33:41.042Z,3.60
2018-02-19T20:36:06.995Z,4.32
2018-02-19T20:38:32.940Z,4.69
2018-02-19T20:40:58.862Z,4.51
2018-02-19T20:43:24.803Z,4.55
2018-02-19T20:45:50.750Z,3.70
2018-02-19T20:48:16.700Z,3.88
2018-02-19T20:50:42.624Z,3.89
2018-02-19T20:53:08.568Z,3.45
2018-02-19T20:55:34.596Z,3.50
2018-02-19T20:58:00.535Z,3.76
2018-02-19T21:00:26.538Z,3.35
2018-02-19T21:02:52.471Z,4.16
2018-02-19T21:05:18.398Z,3.44
2018-02-19T21:07:44.330Z,3.80
2018-02-19T21:10:10.272Z,3.73
2018-02-19T21:12:36.245Z,3.47
2018-02-19T21:15:02.179Z,3.39
2018-02-19T21:17:28.124Z,3.08
2018-02-19T21:19:54.078Z,3.33
2018-02-19T21:22:19.994Z,3.91
2018-02-19T21:24:45.932Z,3.63
2018-02-19T21:27:11.862Z,3.60
2018-02-19T21:29:37.783Z,3.35
2018-02-19T21:32:03.706Z,3.03
2018-02-19T21:34:29.635Z,3.54
2018-02-19T21:36:55.571Z,2.95
2018-02-19T21:39:21.590Z,2.90
2018-02-19T21:41:47.544Z,3.02
2018-02-19T21:44:13.490Z,2.90
2018-02-19T21:46:39.725Z,2.99
2018-02-19T21:49:05.642Z,3.04
2018-02-19T21:51:31.554Z,2.92
2018-02-19T21:53:57.514Z,2.89
2018-02-19T21:56:23.712Z,2.80
2018-02-19T21:58:49.641Z,2.92
2018-02-19T22:01:15.576Z,2.95
2018-02-19T22:03:41.505Z,2.80
2018-02-19T22:06:07.430Z,2.87
2018-02-19T22:08:33.357Z,2.81
2018-02-19T22:10:59.304Z,2.68
2018-02-19T22:13:25.241Z,2.72
2018-02-19T22:15:51.174Z,2.89
2018-02-19T22:18:17.120Z,2.90
2018-02-19T22:20:43.056Z,2.13
2018-02-19T22:23:08.979Z,2.21
2018-02-19T22:25:34.905Z,2.04
2018-02-19T22:28:00.834Z,2.65
2018-02-19T22:30:26.763Z,2.81
2018-02-19T22:32:52.679Z,2.67
2018-02-19T22:35:18.650Z,2.59
2018-02-19T22:37:44.559Z,2.39
2018-02-19T22:40:10.495Z,2.60
2018-02-19T22:42:36.422Z,2.48
2018-02-19T22:45:02.361Z,2.62
2018-02-19T22:47:28.294Z,2.20
2018-02-19T22:49:54.226Z,2.46
2018-02-19T22:52:20.166Z,2.52
2018-02-19T22:54:46.098Z,2.51
2018-02-19T22:57:12.027Z,2.74
2018-02-19T22:59:37.962Z,3.09
2018-02-19T23:02:03.884Z,2.88
2018-02-19T23:04:29.816Z,2.69
2018-02-19T23:06:55.810Z,2.90
2018-02-19T23:09:21.748Z,3.50
2018-02-19T23:11:47.692Z,3.47
2018-02-19T23:14:13.685Z,3.70
2018-02-19T23:16:39.573Z,3.17
2018-02-19T23:19:05.487Z,3.23
2018-02-19T23:21:31.423Z,3.90
2018-02-19T23:23:57.362Z,3.81
2018-02-19T23:26:23.294Z,3.09
2018-02-19T23:28:49.231Z,3.72
2018-02-19T23:31:15.176Z,4.00
2018-02-19T23:33:41.121Z,4.10
2018-02-19T23:36:08.069Z,3.94
2018-02-19T23:38:34.009Z,4.14
2018-02-19T23:40:59.941Z,4.12
2018-02-19T23:43:25.887Z,3.97
2018-02-19T23:45:51.829Z,3.73
2018-02-19T23:48:17.768Z,3.97
2018-02-19T23:50:43.692Z,3.95
2018-02-19T23:53:09.619Z,3.96
2018-02-19T23:55:35.582Z,3.78
2018-02-19T23:58:01.488Z,3.84
